sensor_id;sensor_type;location;lat;lon;timestamp;pressure;altitude;pressure_sealevel;temperature;humidity
72285;BME280;60220;53.552;10.092;2023-03-21T00:02:26;101346.25;;;8.79;86.67
72285;BME280;60220;53.552;10.092;2023-03-21T00:04:53;101334.03;;;8.71;86.71
72285;BME280;60220;53.552;10.092;2023-03-21T00:07:20;101341.03;;;8.82;87.62
72285;BME280;60220;53.552;10.092;2023-03-21T00:09:46;101340.97;;;8.64;86.97
72285;BME280;60220;53.552;10.092;2023-03-21T00:12:13;101334.91;;;8.74;87.52
72285;BME280;60220;53.552;10.092;2023-03-21T00:14:42;101329.75;;;8.95;86.61
72285;BME280;60220;53.552;10.092;2023-03-21T00:17:12;101331.28;;;8.43;87.82
72285;BME280;60220;53.552;10.092;2023-03-21T00:19:40;101332.97;;;8.35;88.01
72285;BME280;60220;53.552;10.092;2023-03-21T00:22:09;101331.41;;;8.69;88.01
72285;BME280;60220;53.552;10.092;2023-03-21T00:24:36;101327.78;;;8.41;88.89
72285;BME280;60220;53.552;10.092;2023-03-21T00:27:06;101334.97;;;8.89;87.66
72285;BME280;60220;53.552;10.092;2023-03-21T00:29:32;101333.13;;;8.64;87.31
72285;BME280;60220;53.552;10.092;2023-03-21T00:32:01;101321.00;;;8.95;86.04
72285;BME280;60220;53.552;10.092;2023-03-21T00:34:27;101327.81;;;8.53;86.93
72285;BME280;60220;53.552;10.092;2023-03-21T00:36:54;101330.66;;;9.11;86.38
72285;BME280;60220;53.552;10.092;2023-03-21T00:39:21;101325.22;;;8.55;86.17
72285;BME280;60220;53.552;10.092;2023-03-21T00:41:48;101321.75;;;8.56;87.79
72285;BME280;60220;53.552;10.092;2023-03-21T00:44:14;101319.81;;;8.28;87.32
72285;BME280;60220;53.552;10.092;2023-03-21T00:46:42;101325.31;;;8.78;87.80
72285;BME280;60220;53.552;10.092;2023-03-21T00:49:10;101324.09;;;8.10;87.78
72285;BME280;60220;53.552;10.092;2023-03-21T00:51:39;101320.13;;;8.94;88.19
72285;BME280;60220;53.552;10.092;2023-03-21T00:54:10;101320.81;;;8.40;87.84
72285;BME280;60220;53.552;10.092;2023-03-21T00:56:39;101316.63;;;8.89;88.28
72285;BME280;60220;53.552;10.092;2023-03-21T00:59:06;101315.44;;;8.20;89.19
72285;BME280;60220;53.552;10.092;2023-03-21T01:01:33;101311.34;;;8.74;88.88
72285;BME280;60220;53.552;10.092;2023-03-21T01:04:00;101314.75;;;8.55;88.86
72285;BME280;60220;53.552;10.092;2023-03-21T01:06:34;101308.78;;;8.94;87.09
72285;BME280;60220;53.552;10.092;2023-03-21T01:09:04;101299.28;;;9.55;85.69
72285;BME280;60220;53.552;10.092;2023-03-21T01:11:31;101304.31;;;8.64;87.07
72285;BME280;60220;53.552;10.092;2023-03-21T01:14:00;101299.16;;;8.76;88.26
72285;BME280;60220;53.552;10.092;2023-03-21T01:16:26;101297.31;;;8.51;88.00
72285;BME280;60220;53.552;10.092;2023-03-21T01:18:55;101301.00;;;9.53;86.76
72285;BME280;60220;53.552;10.092;2023-03-21T01:21:22;101301.84;;;9.23;86.05
72285;BME280;60220;53.552;10.092;2023-03-21T01:23:50;101295.69;;;8.92;85.84
72285;BME280;60220;53.552;10.092;2023-03-21T01:26:17;101292.22;;;9.12;86.76
72285;BME280;60220;53.552;10.092;2023-03-21T01:28:44;101293.97;;;8.99;87.56
72285;BME280;60220;53.552;10.092;2023-03-21T01:31:13;101297.53;;;9.31;86.22
72285;BME280;60220;53.552;10.092;2023-03-21T01:33:43;101297.41;;;8.81;87.80
72285;BME280;60220;53.552;10.092;2023-03-21T01:36:14;101305.38;;;9.45;86.59
72285;BME280;60220;53.552;10.092;2023-03-21T01:38:41;101301.00;;;9.80;86.00
72285;BME280;60220;53.552;10.092;2023-03-21T01:41:19;101296.66;;;9.49;85.49
72285;BME280;60220;53.552;10.092;2023-03-21T01:43:46;101300.13;;;9.77;86.15
72285;BME280;60220;53.552;10.092;2023-03-21T01:46:36;101293.09;;;9.04;86.46
72285;BME280;60220;53.552;10.092;2023-03-21T01:49:08;101297.53;;;9.56;86.23
72285;BME280;60220;53.552;10.092;2023-03-21T01:51:38;101292.22;;;9.02;86.50
72285;BME280;60220;53.552;10.092;2023-03-21T01:54:11;101292.97;;;8.56;88.74
72285;BME280;60220;53.552;10.092;2023-03-21T01:56:44;101293.16;;;9.48;88.68
72285;BME280;60220;53.552;10.092;2023-03-21T01:59:18;101287.81;;;10.27;85.80
72285;BME280;60220;53.552;10.092;2023-03-21T02:01:47;101285.28;;;9.68;84.05
72285;BME280;60220;53.552;10.092;2023-03-21T02:04:17;101284.38;;;9.77;84.51
72285;BME280;60220;53.552;10.092;2023-03-21T02:06:51;101280.06;;;9.71;83.73
72285;BME280;60220;53.552;10.092;2023-03-21T02:09:23;101280.03;;;9.06;85.18
72285;BME280;60220;53.552;10.092;2023-03-21T02:11:53;101283.50;;;9.00;86.97
72285;BME280;60220;53.552;10.092;2023-03-21T02:14:20;101275.63;;;8.96;87.49
72285;BME280;60220;53.552;10.092;2023-03-21T02:16:51;101283.50;;;9.10;87.12
72285;BME280;60220;53.552;10.092;2023-03-21T02:22:36;101273.06;;;9.46;86.05
72285;BME280;60220;53.552;10.092;2023-03-21T02:28:13;101260.78;;;8.93;87.89
72285;BME280;60220;53.552;10.092;2023-03-21T02:31:04;101269.53;;;9.07;87.65
72285;BME280;60220;53.552;10.092;2023-03-21T02:33:51;101263.44;;;9.22;87.48
72285;BME280;60220;53.552;10.092;2023-03-21T02:36:43;101259.06;;;9.38;87.39
72285;BME280;60220;53.552;10.092;2023-03-21T02:39:12;101262.56;;;9.43;86.16
72285;BME280;60220;53.552;10.092;2023-03-21T02:41:46;101255.56;;;9.27;86.47
72285;BME280;60220;53.552;10.092;2023-03-21T02:44:18;101258.19;;;9.08;86.38
72285;BME280;60220;53.552;10.092;2023-03-21T02:46:50;101252.09;;;9.49;86.38
72285;BME280;60220;53.552;10.092;2023-03-21T02:49:24;101259.97;;;9.29;86.70
72285;BME280;60220;53.552;10.092;2023-03-21T02:51:54;101252.09;;;9.58;85.57
72285;BME280;60220;53.552;10.092;2023-03-21T02:54:24;101256.47;;;9.61;85.33
72285;BME280;60220;53.552;10.092;2023-03-21T02:56:52;101258.19;;;9.71;84.69
72285;BME280;60220;53.552;10.092;2023-03-21T02:59:22;101248.59;;;9.44;85.18
72285;BME280;60220;53.552;10.092;2023-03-21T03:01:51;101249.47;;;9.22;85.76
72285;BME280;60220;53.552;10.092;2023-03-21T03:04:19;101251.16;;;8.83;87.68
72285;BME280;60220;53.552;10.092;2023-03-21T03:07:02;101255.59;;;9.48;86.96
72285;BME280;60220;53.552;10.092;2023-03-21T03:09:38;101245.13;;;9.21;87.81
72285;BME280;60220;53.552;10.092;2023-03-21T03:12:14;101247.72;;;9.42;86.52
72285;BME280;60220;53.552;10.092;2023-03-21T03:14:52;101245.09;;;9.15;87.17
72285;BME280;60220;53.552;10.092;2023-03-21T03:17:39;101243.34;;;9.62;86.24
72285;BME280;60220;53.552;10.092;2023-03-21T03:20:23;101240.72;;;9.59;86.46
72285;BME280;60220;53.552;10.092;2023-03-21T03:23:04;101241.59;;;9.22;86.65
72285;BME280;60220;53.552;10.092;2023-03-21T03:25:38;101236.34;;;9.02;87.71
72285;BME280;60220;53.552;10.092;2023-03-21T03:28:11;101236.38;;;9.61;86.22
72285;BME280;60220;53.552;10.092;2023-03-21T03:30:40;101224.13;;;9.60;85.11
72285;BME280;60220;53.552;10.092;2023-03-21T03:33:09;101231.03;;;9.91;85.37
72285;BME280;60220;53.552;10.092;2023-03-21T03:35:36;101227.66;;;9.24;84.80
72285;BME280;60220;53.552;10.092;2023-03-21T03:38:07;101232.88;;;9.01;87.06
72285;BME280;60220;53.552;10.092;2023-03-21T03:40:38;101231.09;;;9.73;85.94
72285;BME280;60220;53.552;10.092;2023-03-21T03:43:09;101221.53;;;9.49;85.67
72285;BME280;60220;53.552;10.092;2023-03-21T03:45:41;101221.53;;;9.37;85.21
72285;BME280;60220;53.552;10.092;2023-03-21T03:48:14;101228.53;;;9.11;86.48
72285;BME280;60220;53.552;10.092;2023-03-21T03:50:48;101224.09;;;8.83;88.52
72285;BME280;60220;53.552;10.092;2023-03-21T03:53:22;101226.75;;;9.08;88.34
72285;BME280;60220;53.552;10.092;2023-03-21T03:55:52;101229.38;;;9.39;87.08
72285;BME280;60220;53.552;10.092;2023-03-21T03:58:21;101228.50;;;9.10;86.86
72285;BME280;60220;53.552;10.092;2023-03-21T04:00:48;101233.75;;;9.28;87.51
72285;BME280;60220;53.552;10.092;2023-03-21T04:03:15;101230.25;;;9.29;87.28
72285;BME280;60220;53.552;10.092;2023-03-21T04:05:43;101225.00;;;9.55;86.52
72285;BME280;60220;53.552;10.092;2023-03-21T04:08:13;101226.75;;;8.93;87.70
72285;BME280;60220;53.552;10.092;2023-03-21T04:10:42;101226.63;;;8.43;90.24
72285;BME280;60220;53.552;10.092;2023-03-21T04:13:09;101224.91;;;8.50;90.19
72285;BME280;60220;53.552;10.092;2023-03-21T04:15:36;101222.41;;;9.35;88.63
72285;BME280;60220;53.552;10.092;2023-03-21T04:18:03;101222.41;;;9.14;88.32
72285;BME280;60220;53.552;10.092;2023-03-21T04:20:31;101224.13;;;9.66;86.86
72285;BME280;60220;53.552;10.092;2023-03-21T04:22:58;101220.66;;;9.22;87.42
72285;BME280;60220;53.552;10.092;2023-03-21T04:25:27;101224.13;;;9.12;88.43
72285;BME280;60220;53.552;10.092;2023-03-21T04:27:56;101227.63;;;8.98;88.22
72285;BME280;60220;53.552;10.092;2023-03-21T04:30:23;101227.63;;;8.89;89.10
72285;BME280;60220;53.552;10.092;2023-03-21T04:32:50;101227.66;;;9.15;88.52
72285;BME280;60220;53.552;10.092;2023-03-21T04:35:19;101226.75;;;9.46;87.24
72285;BME280;60220;53.552;10.092;2023-03-21T04:37:46;101220.66;;;9.34;88.27
72285;BME280;60220;53.552;10.092;2023-03-21T04:40:15;101220.66;;;9.43;87.14
72285;BME280;60220;53.552;10.092;2023-03-21T04:42:46;101217.13;;;8.92;88.18
72285;BME280;60220;53.552;10.092;2023-03-21T04:45:15;101214.56;;;9.41;87.62
72285;BME280;60220;53.552;10.092;2023-03-21T04:47:42;101214.53;;;9.07;88.58
72285;BME280;60220;53.552;10.092;2023-03-21T04:50:09;101211.06;;;9.30;88.36
72285;BME280;60220;53.552;10.092;2023-03-21T04:52:37;101211.00;;;9.63;86.84
72285;BME280;60220;53.552;10.092;2023-03-21T04:55:04;101211.03;;;8.92;87.49
72285;BME280;60220;53.552;10.092;2023-03-21T04:57:37;101219.78;;;9.20;88.10
72285;BME280;60220;53.552;10.092;2023-03-21T05:00:05;101217.19;;;9.15;87.38
72285;BME280;60220;53.552;10.092;2023-03-21T05:02:37;101212.78;;;9.43;88.24
72285;BME280;60220;53.552;10.092;2023-03-21T05:05:04;101217.16;;;9.07;88.83
72285;BME280;60220;53.552;10.092;2023-03-21T05:07:32;101218.91;;;8.90;88.40
72285;BME280;60220;53.552;10.092;2023-03-21T05:10:01;101213.66;;;9.12;89.29
72285;BME280;60220;53.552;10.092;2023-03-21T05:12:29;101214.56;;;9.11;88.35
72285;BME280;60220;53.552;10.092;2023-03-21T05:14:55;101216.28;;;8.99;89.34
72285;BME280;60220;53.552;10.092;2023-03-21T05:17:23;101213.63;;;8.75;90.46
72285;BME280;60220;53.552;10.092;2023-03-21T05:19:54;101215.44;;;9.16;89.33
72285;BME280;60220;53.552;10.092;2023-03-21T05:22:23;101209.31;;;9.29;89.08
72285;BME280;60220;53.552;10.092;2023-03-21T05:24:51;101218.00;;;8.78;89.58
72285;BME280;60220;53.552;10.092;2023-03-21T05:27:21;101219.69;;;8.62;91.18
72285;BME280;60220;53.552;10.092;2023-03-21T05:30:01;101220.63;;;8.88;91.49
72285;BME280;60220;53.552;10.092;2023-03-21T05:32:31;101213.69;;;9.36;90.41
72285;BME280;60220;53.552;10.092;2023-03-21T05:34:59;101206.69;;;9.11;89.70
72285;BME280;60220;53.552;10.092;2023-03-21T05:37:26;101209.28;;;9.65;89.47
72285;BME280;60220;53.552;10.092;2023-03-21T05:39:53;101204.91;;;9.58;88.09
72285;BME280;60220;53.552;10.092;2023-03-21T05:42:20;101205.78;;;9.48;88.49
72285;BME280;60220;53.552;10.092;2023-03-21T05:44:47;101204.91;;;9.58;88.59
72285;BME280;60220;53.552;10.092;2023-03-21T05:47:18;101205.69;;;10.01;87.40
72285;BME280;60220;53.552;10.092;2023-03-21T05:49:47;101199.69;;;9.61;87.26
72285;BME280;60220;53.552;10.092;2023-03-21T05:52:18;101201.44;;;9.00;88.50
72285;BME280;60220;53.552;10.092;2023-03-21T05:54:44;101201.41;;;9.64;87.99
72285;BME280;60220;53.552;10.092;2023-03-21T05:57:14;101199.69;;;9.28;88.08
72285;BME280;60220;53.552;10.092;2023-03-21T05:59:43;101201.41;;;8.65;90.51
72285;BME280;60220;53.552;10.092;2023-03-21T06:02:10;101194.44;;;8.88;91.95
72285;BME280;60220;53.552;10.092;2023-03-21T06:04:37;101205.81;;;9.24;89.80
72285;BME280;60220;53.552;10.092;2023-03-21T06:07:06;101204.94;;;8.97;90.94
72285;BME280;60220;53.552;10.092;2023-03-21T06:09:34;101197.94;;;9.39;90.09
72285;BME280;60220;53.552;10.092;2023-03-21T06:12:01;101210.16;;;8.90;90.22
72285;BME280;60220;53.552;10.092;2023-03-21T06:14:28;101203.19;;;9.08;91.35
72285;BME280;60220;53.552;10.092;2023-03-21T06:16:55;101200.59;;;9.19;90.19
72285;BME280;60220;53.552;10.092;2023-03-21T06:19:22;101199.69;;;8.76;90.87
72285;BME280;60220;53.552;10.092;2023-03-21T06:21:51;101201.47;;;9.26;90.88
72285;BME280;60220;53.552;10.092;2023-03-21T06:24:18;101196.22;;;9.29;90.37
72285;BME280;60220;53.552;10.092;2023-03-21T06:26:46;101195.34;;;9.04;90.08
72285;BME280;60220;53.552;10.092;2023-03-21T06:29:13;101189.22;;;9.37;90.33
72285;BME280;60220;53.552;10.092;2023-03-21T06:31:40;101193.59;;;9.45;90.38
72285;BME280;60220;53.552;10.092;2023-03-21T06:34:06;101184.84;;;9.40;89.39
72285;BME280;60220;53.552;10.092;2023-03-21T06:36:35;101176.13;;;9.32;89.82
72285;BME280;60220;53.552;10.092;2023-03-21T06:39:04;101185.72;;;9.17;90.27
72285;BME280;60220;53.552;10.092;2023-03-21T06:41:34;101182.25;;;9.30;91.00
72285;BME280;60220;53.552;10.092;2023-03-21T06:44:02;101191.84;;;9.23;90.77
72285;BME280;60220;53.552;10.092;2023-03-21T06:46:31;101192.72;;;9.05;91.03
72285;BME280;60220;53.552;10.092;2023-03-21T06:48:58;101191.00;;;9.26;90.86
72285;BME280;60220;53.552;10.092;2023-03-21T06:51:25;101191.84;;;8.99;90.66
72285;BME280;60220;53.552;10.092;2023-03-21T06:53:51;101193.59;;;9.20;90.28
72285;BME280;60220;53.552;10.092;2023-03-21T06:56:21;101194.44;;;8.88;92.00
72285;BME280;60220;53.552;10.092;2023-03-21T06:58:47;101190.97;;;9.29;92.59
72285;BME280;60220;53.552;10.092;2023-03-21T07:01:15;101190.09;;;8.84;92.95
72285;BME280;60220;53.552;10.092;2023-03-21T07:03:42;101195.34;;;9.16;92.44
72285;BME280;60220;53.552;10.092;2023-03-21T07:06:10;101191.84;;;9.29;91.63
72285;BME280;60220;53.552;10.092;2023-03-21T07:08:38;101192.69;;;9.42;92.46
72285;BME280;60220;53.552;10.092;2023-03-21T07:11:05;101199.72;;;9.31;91.88
72285;BME280;60220;53.552;10.092;2023-03-21T07:13:32;101198.84;;;9.30;91.98
72285;BME280;60220;53.552;10.092;2023-03-21T07:15:59;101199.72;;;9.00;91.66
72285;BME280;60220;53.552;10.092;2023-03-21T07:18:27;101199.63;;;9.85;90.85
72285;BME280;60220;53.552;10.092;2023-03-21T07:20:57;101193.59;;;9.23;90.83
72285;BME280;60220;53.552;10.092;2023-03-21T07:23:27;101190.97;;;9.17;91.48
72285;BME280;60220;53.552;10.092;2023-03-21T07:25:54;101197.09;;;9.25;91.48
72285;BME280;60220;53.552;10.092;2023-03-21T07:28:21;101189.22;;;9.37;91.05
72285;BME280;60220;53.552;10.092;2023-03-21T07:30:52;101190.94;;;9.56;91.54
72285;BME280;60220;53.552;10.092;2023-03-21T07:33:19;101197.94;;;9.18;91.90
72285;BME280;60220;53.552;10.092;2023-03-21T07:35:51;101188.38;;;8.95;92.08
72285;BME280;60220;53.552;10.092;2023-03-21T07:38:19;101190.97;;;9.04;93.68
72285;BME280;60220;53.552;10.092;2023-03-21T07:40:47;101192.63;;;9.77;92.84
72285;BME280;60220;53.552;10.092;2023-03-21T07:43:14;101186.59;;;9.50;92.21
72285;BME280;60220;53.552;10.092;2023-03-21T07:45:41;101197.09;;;9.46;93.16
72285;BME280;60220;53.552;10.092;2023-03-21T07:48:09;101195.31;;;9.07;93.58
72285;BME280;60220;53.552;10.092;2023-03-21T07:50:37;101194.44;;;9.37;93.64
72285;BME280;60220;53.552;10.092;2023-03-21T07:53:05;101202.31;;;9.23;93.71
72285;BME280;60220;53.552;10.092;2023-03-21T07:55:32;101194.50;;;9.06;94.24
72285;BME280;60220;53.552;10.092;2023-03-21T07:57:59;101201.47;;;9.36;93.66
72285;BME280;60220;53.552;10.092;2023-03-21T08:00:26;101192.72;;;9.30;93.64
72285;BME280;60220;53.552;10.092;2023-03-21T08:02:56;101194.38;;;9.79;92.64
72285;BME280;60220;53.552;10.092;2023-03-21T08:05:24;101200.56;;;9.27;92.58
72285;BME280;60220;53.552;10.092;2023-03-21T08:07:51;101197.97;;;9.15;94.10
72285;BME280;60220;53.552;10.092;2023-03-21T08:10:20;101193.59;;;9.36;93.44
72285;BME280;60220;53.552;10.092;2023-03-21T08:12:46;101189.22;;;9.49;93.53
72285;BME280;60220;53.552;10.092;2023-03-21T08:15:13;101187.44;;;9.48;93.25
72285;BME280;60220;53.552;10.092;2023-03-21T08:17:40;101190.09;;;9.15;93.55
72285;BME280;60220;53.552;10.092;2023-03-21T08:20:11;101190.06;;;9.42;93.60
72285;BME280;60220;53.552;10.092;2023-03-21T08:22:39;101183.91;;;9.73;92.77
72285;BME280;60220;53.552;10.092;2023-03-21T08:25:07;101183.06;;;9.64;93.00
72285;BME280;60220;53.552;10.092;2023-03-21T08:27:36;101185.72;;;9.45;92.65
72285;BME280;60220;53.552;10.092;2023-03-21T08:30:04;101178.72;;;9.49;92.76
72285;BME280;60220;53.552;10.092;2023-03-21T08:32:30;101187.34;;;9.87;91.66
72285;BME280;60220;53.552;10.092;2023-03-21T08:34:59;101178.75;;;9.40;92.58
72285;BME280;60220;53.552;10.092;2023-03-21T08:37:26;101186.56;;;9.54;91.98
72285;BME280;60220;53.552;10.092;2023-03-21T08:39:53;101182.16;;;9.75;91.70
72285;BME280;60220;53.552;10.092;2023-03-21T08:42:20;101182.19;;;9.57;91.30
72285;BME280;60220;53.552;10.092;2023-03-21T08:44:49;101180.47;;;9.53;92.46
72285;BME280;60220;53.552;10.092;2023-03-21T08:47:18;101182.19;;;9.57;92.67
72285;BME280;60220;53.552;10.092;2023-03-21T08:49:45;101179.59;;;9.45;92.32
72285;BME280;60220;53.552;10.092;2023-03-21T08:52:11;101178.59;;;10.01;91.73
72285;BME280;60220;53.552;10.092;2023-03-21T08:54:38;101182.97;;;9.92;92.03
72285;BME280;60220;53.552;10.092;2023-03-21T08:57:06;101190.84;;;9.96;91.83
72285;BME280;60220;53.552;10.092;2023-03-21T08:59:35;101182.09;;;9.93;91.28
72285;BME280;60220;53.552;10.092;2023-03-21T09:02:05;101179.50;;;9.89;91.18
72285;BME280;60220;53.552;10.092;2023-03-21T09:04:32;101183.06;;;9.58;92.57
72285;BME280;60220;53.552;10.092;2023-03-21T09:06:59;101181.34;;;9.46;93.25
72285;BME280;60220;53.552;10.092;2023-03-21T09:09:29;101183.03;;;9.74;93.16
72285;BME280;60220;53.552;10.092;2023-03-21T09:11:56;101179.50;;;9.84;92.86
72285;BME280;60220;53.552;10.092;2023-03-21T09:14:23;101172.63;;;9.35;93.01
72285;BME280;60220;53.552;10.092;2023-03-21T09:16:49;101175.25;;;9.29;93.97
72285;BME280;60220;53.552;10.092;2023-03-21T09:19:17;101180.47;;;9.47;94.29
72285;BME280;60220;53.552;10.092;2023-03-21T09:21:45;101176.09;;;9.60;94.46
72285;BME280;60220;53.552;10.092;2023-03-21T09:24:12;101184.84;;;9.37;94.02
72285;BME280;60220;53.552;10.092;2023-03-21T09:26:40;101180.44;;;9.62;94.36
72285;BME280;60220;53.552;10.092;2023-03-21T09:29:08;101186.56;;;9.61;94.56
72285;BME280;60220;53.552;10.092;2023-03-21T09:31:35;101183.97;;;9.40;94.08
72285;BME280;60220;53.552;10.092;2023-03-21T09:34:01;101182.06;;;10.03;92.98
72285;BME280;60220;53.552;10.092;2023-03-21T09:36:30;101179.56;;;9.59;92.53
72285;BME280;60220;53.552;10.092;2023-03-21T09:38:59;101184.63;;;10.22;91.92
72285;BME280;60220;53.552;10.092;2023-03-21T09:41:40;101178.28;;;10.63;90.68
72285;BME280;60220;53.552;10.092;2023-03-21T09:44:21;101178.53;;;10.07;89.95
72285;BME280;60220;53.552;10.092;2023-03-21T09:46:56;101174.97;;;10.35;90.14
72285;BME280;60220;53.552;10.092;2023-03-21T09:49:30;101176.78;;;10.12;90.84
72285;BME280;60220;53.552;10.092;2023-03-21T09:52:02;101174.97;;;10.33;89.73
72285;BME280;60220;53.552;10.092;2023-03-21T09:54:36;101172.97;;;10.73;88.13
72285;BME280;60220;53.552;10.092;2023-03-21T09:57:13;101171.44;;;10.39;88.78
72285;BME280;60220;53.552;10.092;2023-03-21T09:59:44;101169.69;;;10.38;89.18
72285;BME280;60220;53.552;10.092;2023-03-21T10:02:33;101170.41;;;10.61;89.24
72285;BME280;60220;53.552;10.092;2023-03-21T10:05:10;101165.44;;;10.16;90.37
72285;BME280;60220;53.552;10.092;2023-03-21T10:07:43;101164.53;;;10.23;90.82
72285;BME280;60220;53.552;10.092;2023-03-21T10:10:15;101168.00;;;10.28;90.68
72285;BME280;60220;53.552;10.092;2023-03-21T10:12:44;101168.81;;;10.41;91.06
72285;BME280;60220;53.552;10.092;2023-03-21T10:15:16;101164.66;;;9.83;91.21
72285;BME280;60220;53.552;10.092;2023-03-21T10:17:50;101167.16;;;10.23;91.46
72285;BME280;60220;53.552;10.092;2023-03-21T10:20:21;101161.91;;;10.15;91.52
72285;BME280;60220;53.552;10.092;2023-03-21T10:22:52;101159.31;;;10.08;92.26
72285;BME280;60220;53.552;10.092;2023-03-21T10:25:22;101160.28;;;9.85;92.25
72285;BME280;60220;53.552;10.092;2023-03-21T10:27:52;101164.53;;;10.26;92.20
72285;BME280;60220;53.552;10.092;2023-03-21T10:30:28;101147.06;;;10.19;92.44
72285;BME280;60220;53.552;10.092;2023-03-21T10:32:58;101146.94;;;10.40;91.83
72285;BME280;60220;53.552;10.092;2023-03-21T10:35:29;101145.91;;;10.62;91.34
72285;BME280;60220;53.552;10.092;2023-03-21T10:37:59;101155.88;;;9.93;92.50
72285;BME280;60220;53.552;10.092;2023-03-21T10:40:26;101145.38;;;9.92;93.85
72285;BME280;60220;53.552;10.092;2023-03-21T10:42:54;101151.56;;;9.74;94.46
72285;BME280;60220;53.552;10.092;2023-03-21T10:45:22;101147.03;;;10.25;94.35
72285;BME280;60220;53.552;10.092;2023-03-21T10:47:50;101148.81;;;10.08;94.03
72285;BME280;60220;53.552;10.092;2023-03-21T10:50:18;101148.78;;;10.26;94.40
72285;BME280;60220;53.552;10.092;2023-03-21T10:52:52;101147.09;;;10.04;93.97
72285;BME280;60220;53.552;10.092;2023-03-21T10:55:27;101147.88;;;10.27;93.21
72285;BME280;60220;53.552;10.092;2023-03-21T10:57:58;101136.50;;;10.31;93.15
72285;BME280;60220;53.552;10.092;2023-03-21T11:00:32;101145.25;;;10.30;92.67
72285;BME280;60220;53.552;10.092;2023-03-21T11:03:02;101143.44;;;10.38;92.66
72285;BME280;60220;53.552;10.092;2023-03-21T11:05:34;101132.88;;;10.47;92.28
72285;BME280;60220;53.552;10.092;2023-03-21T11:08:09;101133.19;;;9.89;92.79
72285;BME280;60220;53.552;10.092;2023-03-21T11:10:50;101129.66;;;9.93;93.83
72285;BME280;60220;53.552;10.092;2023-03-21T11:13:18;101128.63;;;10.31;93.96
72285;BME280;60220;53.552;10.092;2023-03-21T11:15:52;101129.63;;;10.00;93.79
72285;BME280;60220;53.552;10.092;2023-03-21T11:18:21;101127.88;;;10.05;93.56
72285;BME280;60220;53.552;10.092;2023-03-21T11:20:51;101120.84;;;10.10;94.32
72285;BME280;60220;53.552;10.092;2023-03-21T11:23:19;101127.84;;;10.08;94.77
72285;BME280;60220;53.552;10.092;2023-03-21T11:25:49;101129.69;;;9.90;95.04
72285;BME280;60220;53.552;10.092;2023-03-21T11:28:18;101125.22;;;10.08;95.04
72285;BME280;60220;53.552;10.092;2023-03-21T11:30:51;101122.47;;;10.32;94.61
72285;BME280;60220;53.552;10.092;2023-03-21T11:33:20;101116.19;;;10.60;93.94
72285;BME280;60220;53.552;10.092;2023-03-21T11:35:58;101110.66;;;10.94;92.55
72285;BME280;60220;53.552;10.092;2023-03-21T11:38:26;101116.25;;;10.47;92.26
72285;BME280;60220;53.552;10.092;2023-03-21T11:41:00;101115.59;;;10.16;93.84
72285;BME280;60220;53.552;10.092;2023-03-21T11:43:30;101110.31;;;10.25;93.98
72285;BME280;60220;53.552;10.092;2023-03-21T11:45:59;101112.09;;;10.11;94.32
72285;BME280;60220;53.552;10.092;2023-03-21T11:48:27;101106.13;;;11.11;93.68
72285;BME280;60220;53.552;10.092;2023-03-21T11:51:01;101095.81;;;10.90;92.53
72285;BME280;60220;53.552;10.092;2023-03-21T11:53:37;101097.03;;;10.46;92.75
72285;BME280;60220;53.552;10.092;2023-03-21T11:56:21;101103.22;;;10.39;92.55
72285;BME280;60220;53.552;10.092;2023-03-21T11:59:03;101096.09;;;10.53;93.64
72285;BME280;60220;53.552;10.092;2023-03-21T12:01:41;101090.91;;;10.50;93.10
72285;BME280;60220;53.552;10.092;2023-03-21T12:04:19;101089.16;;;10.49;92.87
72285;BME280;60220;53.552;10.092;2023-03-21T12:06:51;101082.19;;;10.42;93.62
72285;BME280;60220;53.552;10.092;2023-03-21T12:09:29;101079.69;;;10.24;93.21
72285;BME280;60220;53.552;10.092;2023-03-21T12:12:05;101076.03;;;10.49;93.00
72285;BME280;60220;53.552;10.092;2023-03-21T12:14:41;101069.78;;;10.62;92.42
72285;BME280;60220;53.552;10.092;2023-03-21T12:17:24;101072.47;;;10.55;92.41
72285;BME280;60220;53.552;10.092;2023-03-21T12:20:13;101065.41;;;10.64;91.78
72285;BME280;60220;53.552;10.092;2023-03-21T12:22:55;101059.28;;;10.62;92.22
72285;BME280;60220;53.552;10.092;2023-03-21T12:25:27;101064.44;;;10.71;91.22
72285;BME280;60220;53.552;10.092;2023-03-21T12:28:06;101060.88;;;10.82;91.22
72285;BME280;60220;53.552;10.092;2023-03-21T12:30:47;101053.47;;;11.23;90.72
72285;BME280;60220;53.552;10.092;2023-03-21T12:33:31;101051.44;;;10.56;90.38
72285;BME280;60220;53.552;10.092;2023-03-21T12:36:10;101051.41;;;10.62;89.95
72285;BME280;60220;53.552;10.092;2023-03-21T12:38:50;101053.72;;;11.00;89.63
72285;BME280;60220;53.552;10.092;2023-03-21T12:41:23;101052.78;;;11.04;89.12
72285;BME280;60220;53.552;10.092;2023-03-21T12:43:59;101044.88;;;11.06;89.08
72285;BME280;60220;53.552;10.092;2023-03-21T12:46:32;101050.09;;;11.09;89.08
72285;BME280;60220;53.552;10.092;2023-03-21T12:49:07;101036.81;;;10.28;89.28
72285;BME280;60220;53.552;10.092;2023-03-21T12:51:38;101036.72;;;10.37;89.36
72285;BME280;60220;53.552;10.092;2023-03-21T12:54:16;101038.97;;;10.81;88.85
72285;BME280;60220;53.552;10.092;2023-03-21T12:56:51;101030.06;;;10.97;87.72
72285;BME280;60220;53.552;10.092;2023-03-21T12:59:30;101023.69;;;10.26;88.91
72285;BME280;60220;53.552;10.092;2023-03-21T13:01:59;101024.47;;;10.41;89.48
72285;BME280;60220;53.552;10.092;2023-03-21T13:04:46;101027.81;;;10.59;90.27
72285;BME280;60220;53.552;10.092;2023-03-21T13:07:17;101024.28;;;10.62;89.89
72285;BME280;60220;53.552;10.092;2023-03-21T13:09:48;101018.94;;;10.75;90.31
72285;BME280;60220;53.552;10.092;2023-03-21T13:12:24;101016.22;;;10.85;90.72